Time;durP1;ratioP1;P1;durP2;ratioP2;P2;SDS_P1;SDS_P2;PMS_P1;PMS_P2;Temp;Humidity;BMP_temperature;BMP_pressure;BME280_temperature;BME280_humidity;BME280_pressure;Samples;Min_cycle;Max_cycle;Signal;HPM_P1;HPM_P2
2022/01/13 00:01:54;;;;;;;;;;;9.10;96.60;;;;;;5017789;28;19984;-77
2022/01/13 00:04:20;;;;;;;;;;;9.10;96.30;;;;;;5017788;28;20391;-77
2022/01/13 00:06:46;;;;;;;;;;;9.10;96.30;;;;;;5017036;28;19981;-77
2022/01/13 00:09:12;;;;;;;;;;;9.00;96.20;;;;;;5017749;28;19916;-77
2022/01/13 00:11:38;;;;;;;;;;;9.00;96.20;;;;;;5017486;28;19998;-77
2022/01/13 00:16:44;;;;;;;;;;;9.00;96.30;;;;;;5017660;28;19977;-77
2022/01/13 00:21:47;;;;;;;;;;;9.00;96.20;;;;;;5021627;28;19910;-76
2022/01/13 00:24:13;;;;;;;;;;;9.00;95.90;;;;;;5021732;28;19913;-76
2022/01/13 00:26:40;;;;;;;;;;;9.00;95.80;;;;;;5021855;28;19921;-77
2022/01/13 00:29:06;;;;;;;;;;;8.90;95.80;;;;;;5021148;28;19910;-76
2022/01/13 00:31:35;;;;;;;;;;;8.90;95.80;;;;;;5017553;28;19920;-76
2022/01/13 00:34:02;;;;;;;;;;;8.90;95.70;;;;;;5020768;28;19913;-76
2022/01/13 00:36:29;;;;;;;;;;;9.00;95.80;;;;;;5020779;28;20418;-76
2022/01/13 00:38:55;;;;;;;;;;;8.90;96.10;;;;;;5020833;28;20447;-76
2022/01/13 00:41:23;;;;;;;;;;;8.90;96.00;;;;;;5020736;28;19917;-76
2022/01/13 00:43:48;;;;;;;;;;;8.90;96.10;;;;;;5021298;28;19910;-76
2022/01/13 00:46:21;;;;;;;;;;;8.90;96.20;;;;;;5021459;28;19909;-76
2022/01/13 00:48:47;;;;;;;;;;;8.90;96.40;;;;;;5038374;28;19995;-76
2022/01/13 00:51:12;;;;;;;;;;;8.90;96.40;;;;;;5039627;28;19909;-76
2022/01/13 00:53:38;;;;;;;;;;;8.90;96.30;;;;;;5039816;28;19909;-76
2022/01/13 00:56:04;;;;;;;;;;;8.80;96.20;;;;;;5035581;28;19924;-76
2022/01/13 00:58:31;;;;;;;;;;;8.90;96.30;;;;;;5020858;28;19920;-76
2022/01/13 01:00:57;;;;;;;;;;;8.80;96.30;;;;;;5020097;28;19933;-77
2022/01/13 01:03:23;;;;;;;;;;;8.80;96.40;;;;;;5021106;28;19914;-77
2022/01/13 01:05:49;;;;;;;;;;;8.80;96.40;;;;;;5020639;28;19922;-77
2022/01/13 01:08:14;;;;;;;;;;;8.80;96.40;;;;;;5020867;28;19916;-77
2022/01/13 01:10:41;;;;;;;;;;;8.80;96.20;;;;;;5020450;28;19917;-77
2022/01/13 01:13:12;;;;;;;;;;;8.80;96.00;;;;;;5020584;28;19914;-77
2022/01/13 01:15:41;;;;;;;;;;;8.80;95.80;;;;;;5020573;28;19913;-77
2022/01/13 01:18:18;;;;;;;;;;;8.80;95.80;;;;;;5019249;28;19919;-76
2022/01/13 01:21:02;;;;;;;;;;;8.80;95.80;;;;;;5019919;28;19913;-76
2022/01/13 01:23:28;;;;;;;;;;;8.80;95.90;;;;;;5017410;28;20004;-77
2022/01/13 01:26:25;;;;;;;;;;;8.80;96.10;;;;;;5020386;28;19921;-76
2022/01/13 01:28:58;;;;;;;;;;;8.70;96.00;;;;;;5018917;28;19917;-76
2022/01/13 01:31:30;;;;;;;;;;;8.70;95.80;;;;;;5018557;28;20380;-76
2022/01/13 01:34:21;;;;;;;;;;;8.70;95.60;;;;;;5028055;28;19914;-76
2022/01/13 01:36:45;;;;;;;;;;;8.70;95.50;;;;;;5019884;28;19913;-76
2022/01/13 01:39:11;;;;;;;;;;;8.70;95.10;;;;;;5020200;28;19924;-77
2022/01/13 01:41:38;;;;;;;;;;;8.70;94.80;;;;;;5019830;28;19996;-77
2022/01/13 01:44:08;;;;;;;;;;;8.70;94.90;;;;;;5009869;28;19914;-76
2022/01/13 01:46:38;;;;;;;;;;;8.60;94.70;;;;;;5023636;28;19977;-77
2022/01/13 01:49:14;;;;;;;;;;;8.70;94.60;;;;;;5018660;28;19917;-76
2022/01/13 01:51:40;;;;;;;;;;;8.60;94.40;;;;;;5019437;28;19910;-77
2022/01/13 01:54:06;;;;;;;;;;;8.60;94.10;;;;;;5019182;28;19948;-76
2022/01/13 01:56:32;;;;;;;;;;;8.60;93.80;;;;;;5018529;28;19920;-76
2022/01/13 01:59:01;;;;;;;;;;;8.60;93.80;;;;;;5019887;28;19949;-77
2022/01/13 02:01:28;;;;;;;;;;;8.60;93.90;;;;;;5019753;28;20345;-76
2022/01/13 02:03:53;;;;;;;;;;;8.50;93.80;;;;;;5019277;28;19936;-76
2022/01/13 02:06:19;;;;;;;;;;;8.50;93.90;;;;;;5019984;28;20385;-76
2022/01/13 02:08:45;;;;;;;;;;;8.50;94.20;;;;;;5018262;28;20280;-76
2022/01/13 02:11:11;;;;;;;;;;;8.50;94.20;;;;;;5018990;28;19917;-76
2022/01/13 02:13:44;;;;;;;;;;;8.50;94.20;;;;;;5019123;28;19920;-76
2022/01/13 02:16:25;;;;;;;;;;;8.50;94.30;;;;;;5018322;28;19925;-76
2022/01/13 02:18:51;;;;;;;;;;;8.40;94.30;;;;;;5019612;28;19920;-76
2022/01/13 02:21:19;;;;;;;;;;;8.40;94.50;;;;;;5019546;28;19941;-76
2022/01/13 02:23:44;;;;;;;;;;;8.30;94.40;;;;;;5018624;28;19949;-76
2022/01/13 02:26:10;;;;;;;;;;;8.30;94.40;;;;;;5017803;28;19926;-77
2022/01/13 02:28:36;;;;;;;;;;;8.30;94.50;;;;;;5019176;28;19952;-76
2022/01/13 02:31:02;;;;;;;;;;;8.20;94.50;;;;;;5018703;28;20288;-77
2022/01/13 02:33:28;;;;;;;;;;;8.20;94.50;;;;;;5029399;28;19913;-77
2022/01/13 02:35:54;;;;;;;;;;;8.20;94.50;;;;;;5019102;28;19924;-76
2022/01/13 02:38:19;;;;;;;;;;;8.10;94.60;;;;;;5019247;28;19964;-76
2022/01/13 02:40:51;;;;;;;;;;;8.00;94.50;;;;;;5018760;28;19913;-76
2022/01/13 02:43:16;;;;;;;;;;;8.00;94.50;;;;;;5016730;28;19913;-76
2022/01/13 02:45:59;;;;;;;;;;;8.00;94.40;;;;;;5018822;28;19914;-76
2022/01/13 02:50:54;;;;;;;;;;;7.80;94.40;;;;;;5018528;28;19914;-76
2022/01/13 02:53:20;;;;;;;;;;;7.70;94.30;;;;;;5018873;28;19913;-76
2022/01/13 02:55:45;;;;;;;;;;;7.60;94.30;;;;;;5018240;28;19921;-76
2022/01/13 02:58:15;;;;;;;;;;;7.50;94.30;;;;;;5018703;28;19920;-76
2022/01/13 03:00:41;;;;;;;;;;;7.50;94.30;;;;;;5019223;28;19920;-77
2022/01/13 03:03:06;;;;;;;;;;;7.40;94.40;;;;;;5018229;28;20001;-76
2022/01/13 03:05:37;;;;;;;;;;;7.30;94.40;;;;;;5017944;28;19976;-76
2022/01/13 03:08:03;;;;;;;;;;;7.20;94.40;;;;;;5018456;28;19928;-76
2022/01/13 03:10:29;;;;;;;;;;;7.10;94.40;;;;;;5018396;28;20447;-76
2022/01/13 03:12:56;;;;;;;;;;;7.00;94.40;;;;;;5018370;28;19914;-76
2022/01/13 03:15:22;;;;;;;;;;;6.90;94.50;;;;;;5016451;28;19913;-76
2022/01/13 03:17:47;;;;;;;;;;;6.90;94.50;;;;;;5018125;28;20338;-76
2022/01/13 03:20:13;;;;;;;;;;;6.80;94.50;;;;;;5018155;28;19913;-76
2022/01/13 03:22:39;;;;;;;;;;;6.70;94.50;;;;;;5018206;28;20048;-76
2022/01/13 03:25:05;;;;;;;;;;;6.60;94.50;;;;;;5018047;28;19956;-76
2022/01/13 03:27:34;;;;;;;;;;;6.60;94.50;;;;;;5018245;28;20415;-76
2022/01/13 03:30:05;;;;;;;;;;;6.50;94.50;;;;;;5010342;28;20300;-76
2022/01/13 03:32:31;;;;;;;;;;;6.40;94.50;;;;;;5025104;28;19980;-76
2022/01/13 03:34:57;;;;;;;;;;;6.40;94.50;;;;;;5018308;28;20266;-76
2022/01/13 03:37:22;;;;;;;;;;;6.30;94.50;;;;;;5017839;28;19986;-76
2022/01/13 03:39:48;;;;;;;;;;;6.30;94.50;;;;;;5017454;28;20541;-76
2022/01/13 03:42:14;;;;;;;;;;;6.20;94.50;;;;;;5017885;28;20379;-76
2022/01/13 03:44:40;;;;;;;;;;;6.20;94.60;;;;;;5017666;28;19917;-76
2022/01/13 03:47:05;;;;;;;;;;;6.10;94.60;;;;;;5024805;28;19916;-76
2022/01/13 03:49:32;;;;;;;;;;;6.10;94.70;;;;;;5017996;28;19914;-76
2022/01/13 03:52:02;;;;;;;;;;;6.10;94.90;;;;;;5017268;28;19913;-76
2022/01/13 03:54:31;;;;;;;;;;;6.20;95.00;;;;;;5016233;28;20008;-76
2022/01/13 03:57:12;;;;;;;;;;;6.20;95.10;;;;;;5004627;28;20345;-77
2022/01/13 03:59:57;;;;;;;;;;;6.20;95.10;;;;;;5017719;28;19997;-76
2022/01/13 04:02:22;;;;;;;;;;;6.20;95.20;;;;;;5017571;28;19917;-76
2022/01/13 04:04:49;;;;;;;;;;;6.30;95.30;;;;;;5017444;28;19914;-76
2022/01/13 04:07:19;;;;;;;;;;;6.30;95.30;;;;;;5017309;28;19909;-76
2022/01/13 04:09:45;;;;;;;;;;;6.30;95.40;;;;;;5017056;28;19940;-76
2022/01/13 04:12:12;;;;;;;;;;;6.40;95.50;;;;;;5016534;28;19976;-76
2022/01/13 04:17:07;;;;;;;;;;;6.40;95.60;;;;;;5017589;28;19960;-76
2022/01/13 04:19:33;;;;;;;;;;;6.40;95.70;;;;;;5004656;28;20372;-76
2022/01/13 04:21:58;;;;;;;;;;;6.50;95.70;;;;;;5017224;28;19909;-76
2022/01/13 04:24:24;;;;;;;;;;;6.50;95.80;;;;;;5016868;28;19919;-76
2022/01/13 04:26:52;;;;;;;;;;;6.50;95.80;;;;;;5016586;28;19925;-76
2022/01/13 04:29:27;;;;;;;;;;;6.50;95.90;;;;;;5017463;28;19913;-76
2022/01/13 04:31:53;;;;;;;;;;;6.50;95.90;;;;;;5019016;28;19928;-76
2022/01/13 04:34:19;;;;;;;;;;;6.60;95.90;;;;;;5027229;28;20316;-76
2022/01/13 04:36:47;;;;;;;;;;;6.60;96.00;;;;;;5016088;28;21555;-76
2022/01/13 04:39:14;;;;;;;;;;;6.60;96.00;;;;;;5017202;28;19913;-76
2022/01/13 04:41:44;;;;;;;;;;;6.60;96.00;;;;;;5017080;28;19914;-76
2022/01/13 04:44:15;;;;;;;;;;;6.60;96.00;;;;;;5016312;28;19913;-76
2022/01/13 04:46:41;;;;;;;;;;;6.70;96.00;;;;;;5015880;28;19913;-76
2022/01/13 04:49:07;;;;;;;;;;;6.70;96.00;;;;;;5017274;28;19967;-76
2022/01/13 04:51:33;;;;;;;;;;;6.70;96.00;;;;;;5017452;28;19910;-76
2022/01/13 04:53:59;;;;;;;;;;;6.70;96.00;;;;;;5015057;28;19913;-76
2022/01/13 04:56:30;;;;;;;;;;;6.70;96.10;;;;;;5017081;28;19924;-76
2022/01/13 04:58:56;;;;;;;;;;;6.70;96.10;;;;;;5013722;28;19918;-76
2022/01/13 05:01:22;;;;;;;;;;;6.80;96.10;;;;;;5007817;28;19917;-76
2022/01/13 05:03:48;;;;;;;;;;;6.80;96.10;;;;;;5016993;28;20402;-75
2022/01/13 05:06:17;;;;;;;;;;;6.70;96.10;;;;;;5017424;28;19935;-75
2022/01/13 05:08:43;;;;;;;;;;;6.80;96.10;;;;;;5019744;28;19963;-75
2022/01/13 05:11:09;;;;;;;;;;;6.80;96.00;;;;;;5021013;28;20289;-75
2022/01/13 05:13:35;;;;;;;;;;;6.80;95.90;;;;;;5020570;28;19920;-76
2022/01/13 05:16:00;;;;;;;;;;;6.80;95.80;;;;;;5020576;28;19983;-77
2022/01/13 05:18:41;;;;;;;;;;;6.80;95.80;;;;;;5020887;28;19910;-76
2022/01/13 05:21:18;;;;;;;;;;;6.80;95.80;;;;;;5012343;28;19956;-75
2022/01/13 05:23:43;;;;;;;;;;;6.80;95.60;;;;;;5018735;28;19976;-76
2022/01/13 05:26:10;;;;;;;;;;;6.80;95.70;;;;;;5020763;28;20360;-76
2022/01/13 05:28:36;;;;;;;;;;;6.80;95.70;;;;;;5020320;28;19921;-76
2022/01/13 05:31:01;;;;;;;;;;;6.80;95.70;;;;;;5019777;28;19921;-76
2022/01/13 05:33:27;;;;;;;;;;;6.80;95.70;;;;;;5028809;28;19909;-75
2022/01/13 05:35:53;;;;;;;;;;;6.80;95.60;;;;;;5019966;28;19913;-71
2022/01/13 05:38:19;;;;;;;;;;;6.80;95.50;;;;;;5018796;28;19920;-74
2022/01/13 05:40:44;;;;;;;;;;;6.80;95.30;;;;;;5020157;28;19920;-73
2022/01/13 05:43:10;;;;;;;;;;;6.80;95.00;;;;;;5019885;28;19996;-74
2022/01/13 05:45:36;;;;;;;;;;;6.80;95.00;;;;;;5019234;28;19913;-73
2022/01/13 05:48:02;;;;;;;;;;;6.80;95.10;;;;;;5028315;28;19917;-72
2022/01/13 05:50:29;;;;;;;;;;;6.80;95.00;;;;;;5018498;28;20000;-72
2022/01/13 05:52:55;;;;;;;;;;;6.80;95.00;;;;;;5017736;28;19913;-72
2022/01/13 05:55:21;;;;;;;;;;;6.80;95.00;;;;;;5019484;28;19914;-71
2022/01/13 05:57:47;;;;;;;;;;;6.80;94.80;;;;;;5019952;28;20448;-84
2022/01/13 06:00:14;;;;;;;;;;;6.80;94.80;;;;;;5018422;28;19964;-82
2022/01/13 06:02:40;;;;;;;;;;;6.80;94.70;;;;;;5018917;28;19920;-84
2022/01/13 06:05:07;;;;;;;;;;;6.70;94.70;;;;;;5019177;28;20304;-81
2022/01/13 06:07:32;;;;;;;;;;;6.80;94.70;;;;;;5018632;28;19920;-75
2022/01/13 06:09:58;;;;;;;;;;;6.80;94.50;;;;;;5019496;28;20004;-76
2022/01/13 06:12:32;;;;;;;;;;;6.80;94.30;;;;;;5020098;28;19979;-83
2022/01/13 06:14:59;;;;;;;;;;;6.80;94.30;;;;;;5019301;28;19919;-81
2022/01/13 06:17:25;;;;;;;;;;;6.70;94.50;;;;;;5018485;28;19972;-75
2022/01/13 06:19:50;;;;;;;;;;;6.70;94.60;;;;;;5019733;28;19913;-79
2022/01/13 06:22:16;;;;;;;;;;;6.70;94.70;;;;;;5019088;28;19913;-83
2022/01/13 06:24:42;;;;;;;;;;;6.70;94.40;;;;;;5018228;28;20388;-83
2022/01/13 06:27:07;;;;;;;;;;;6.70;94.40;;;;;;5019572;28;19917;-83
2022/01/13 06:29:33;;;;;;;;;;;6.70;94.40;;;;;;5018846;28;19914;-84
2022/01/13 06:31:59;;;;;;;;;;;6.70;94.50;;;;;;5020591;28;19973;-84
2022/01/13 06:34:24;;;;;;;;;;;6.70;94.70;;;;;;5018624;28;20293;-85
2022/01/13 06:36:50;;;;;;;;;;;6.70;94.60;;;;;;5016608;28;19925;-85
2022/01/13 06:39:16;;;;;;;;;;;6.70;94.70;;;;;;5019006;28;19947;-84
2022/01/13 06:41:41;;;;;;;;;;;6.70;94.60;;;;;;5018920;28;20396;-84
2022/01/13 06:44:07;;;;;;;;;;;6.70;94.60;;;;;;5017172;28;20004;-84
2022/01/13 06:46:33;;;;;;;;;;;6.70;94.60;;;;;;5019697;28;20371;-83
2022/01/13 06:48:59;;;;;;;;;;;6.70;94.70;;;;;;5018162;28;20293;-85
2022/01/13 06:51:24;;;;;;;;;;;6.70;94.50;;;;;;5018734;28;19948;-85
2022/01/13 06:53:50;;;;;;;;;;;6.70;94.60;;;;;;5018268;28;19913;-85
2022/01/13 06:56:15;;;;;;;;;;;6.70;94.60;;;;;;5017107;28;19917;-84
2022/01/13 06:58:44;;;;;;;;;;;6.70;94.70;;;;;;5017195;28;19918;-84
2022/01/13 07:01:10;;;;;;;;;;;6.70;94.60;;;;;;5018655;28;19914;-79
2022/01/13 07:03:36;;;;;;;;;;;6.70;94.70;;;;;;5018392;28;19917;-80
2022/01/13 07:06:02;;;;;;;;;;;6.70;94.80;;;;;;5017974;28;19960;-85
2022/01/13 07:08:28;;;;;;;;;;;6.70;94.90;;;;;;5018447;28;20393;-77
2022/01/13 07:10:53;;;;;;;;;;;6.70;95.00;;;;;;5018168;28;19940;-78
2022/01/13 07:13:19;;;;;;;;;;;6.70;95.00;;;;;;5017684;28;20001;-78
2022/01/13 07:15:45;;;;;;;;;;;6.70;95.00;;;;;;5017507;28;20308;-78
2022/01/13 07:18:11;;;;;;;;;;;6.70;95.10;;;;;;5014633;28;19924;-78
2022/01/13 07:20:39;;;;;;;;;;;6.70;95.00;;;;;;5017850;28;19917;-78
2022/01/13 07:23:05;;;;;;;;;;;6.70;95.10;;;;;;5016009;28;19909;-78
2022/01/13 07:25:30;;;;;;;;;;;6.70;95.10;;;;;;5017996;28;19925;-78
2022/01/13 07:27:56;;;;;;;;;;;6.70;95.10;;;;;;5018304;28;19954;-78
2022/01/13 07:30:22;;;;;;;;;;;6.70;95.10;;;;;;5017149;28;19933;-78
2022/01/13 07:32:48;;;;;;;;;;;6.70;95.20;;;;;;5019170;28;19941;-78
2022/01/13 07:35:13;;;;;;;;;;;6.70;95.20;;;;;;5016742;28;19940;-78
2022/01/13 07:37:39;;;;;;;;;;;6.70;95.20;;;;;;5017359;28;19926;-78
2022/01/13 07:40:05;;;;;;;;;;;6.70;95.30;;;;;;5017696;28;19914;-78
2022/01/13 07:42:31;;;;;;;;;;;6.70;95.30;;;;;;5016591;28;20416;-78
2022/01/13 07:44:57;;;;;;;;;;;6.70;95.30;;;;;;5017350;28;19913;-77
2022/01/13 07:47:22;;;;;;;;;;;6.70;95.40;;;;;;5021035;28;19924;-78
2022/01/13 07:49:48;;;;;;;;;;;6.70;95.40;;;;;;5020514;28;19913;-78
2022/01/13 07:52:13;;;;;;;;;;;6.70;95.40;;;;;;5016522;28;19917;-78
2022/01/13 07:54:39;;;;;;;;;;;6.70;95.40;;;;;;5016841;28;19913;-78
2022/01/13 07:57:05;;;;;;;;;;;6.70;95.40;;;;;;5015507;28;19972;-78
2022/01/13 07:59:31;;;;;;;;;;;6.70;95.30;;;;;;5017006;28;19945;-78
2022/01/13 08:02:00;;;;;;;;;;;6.70;95.30;;;;;;5017707;28;19920;-78
2022/01/13 08:04:26;;;;;;;;;;;6.60;95.20;;;;;;5015896;28;19920;-78
2022/01/13 08:06:51;;;;;;;;;;;6.60;95.20;;;;;;5016842;28;19918;-78
2022/01/13 08:09:17;;;;;;;;;;;6.50;95.10;;;;;;5016672;28;19921;-78
2022/01/13 08:11:44;;;;;;;;;;;6.50;95.10;;;;;;5017205;28;19914;-78
2022/01/13 08:14:10;;;;;;;;;;;6.40;95.10;;;;;;5016704;28;19968;-78
2022/01/13 08:16:37;;;;;;;;;;;6.30;95.10;;;;;;5017244;28;19922;-78
2022/01/13 08:21:47;;;;;;;;;;;6.20;95.10;;;;;;5015699;28;19921;-78
2022/01/13 08:24:13;;;;;;;;;;;6.10;95.10;;;;;;5015709;28;19922;-78
2022/01/13 08:26:39;;;;;;;;;;;6.10;95.20;;;;;;5015701;28;20036;-78
2022/01/13 08:29:04;;;;;;;;;;;6.00;95.20;;;;;;5016518;28;20283;-78
2022/01/13 08:31:30;;;;;;;;;;;6.00;95.20;;;;;;5017241;28;19936;-78
2022/01/13 08:33:56;;;;;;;;;;;6.00;95.20;;;;;;5014908;28;19964;-78
2022/01/13 08:36:22;;;;;;;;;;;5.90;95.30;;;;;;5017048;28;19979;-78
2022/01/13 08:38:49;;;;;;;;;;;5.90;95.30;;;;;;5016406;28;19913;-78
2022/01/13 08:41:16;;;;;;;;;;;5.90;95.30;;;;;;5019488;28;19917;-78
2022/01/13 08:43:41;;;;;;;;;;;5.90;95.40;;;;;;5020158;28;19917;-78
2022/01/13 08:46:07;;;;;;;;;;;5.90;95.50;;;;;;5021283;28;19939;-78
2022/01/13 08:48:34;;;;;;;;;;;5.90;95.50;;;;;;5008384;28;19914;-78
2022/01/13 08:51:00;;;;;;;;;;;5.90;95.50;;;;;;5020093;28;19920;-78
2022/01/13 08:53:26;;;;;;;;;;;5.90;95.90;;;;;;5020608;28;20431;-78
2022/01/13 08:55:54;;;;;;;;;;;6.00;95.70;;;;;;5018745;28;19917;-78
2022/01/13 08:58:22;;;;;;;;;;;6.00;95.80;;;;;;5020546;28;19918;-78
2022/01/13 09:00:49;;;;;;;;;;;6.10;95.80;;;;;;5020953;28;19913;-78
2022/01/13 09:03:15;;;;;;;;;;;6.10;95.80;;;;;;5020716;28;20295;-78
2022/01/13 09:05:41;;;;;;;;;;;6.20;95.80;;;;;;5020190;28;19972;-78
2022/01/13 09:08:09;;;;;;;;;;;6.20;95.80;;;;;;5020259;28;19913;-78
2022/01/13 09:10:35;;;;;;;;;;;6.30;95.90;;;;;;5020497;28;19914;-78
2022/01/13 09:13:01;;;;;;;;;;;6.30;95.90;;;;;;5020147;28;20008;-78
2022/01/13 09:15:36;;;;;;;;;;;6.40;95.90;;;;;;5019439;28;20012;-78
2022/01/13 09:18:15;;;;;;;;;;;6.50;96.00;;;;;;5020533;28;19914;-78
2022/01/13 09:20:40;;;;;;;;;;;6.60;96.10;;;;;;5019899;28;19921;-78
2022/01/13 09:23:07;;;;;;;;;;;6.70;96.00;;;;;;5019291;28;19922;-78
2022/01/13 09:25:33;;;;;;;;;;;6.80;96.10;;;;;;5018422;28;20011;-77
2022/01/13 09:27:59;;;;;;;;;;;6.90;95.90;;;;;;5008893;28;19914;-78
2022/01/13 09:30:25;;;;;;;;;;;7.00;95.70;;;;;;5019224;28;19967;-78
2022/01/13 09:32:51;;;;;;;;;;;7.00;95.50;;;;;;5021323;28;19984;-78
2022/01/13 09:35:17;;;;;;;;;;;7.00;95.30;;;;;;5019747;28;19959;-78
2022/01/13 09:37:43;;;;;;;;;;;7.10;94.90;;;;;;5019967;28;19921;-78
2022/01/13 09:40:10;;;;;;;;;;;7.10;94.90;;;;;;5019650;28;19949;-78
2022/01/13 09:42:38;;;;;;;;;;;7.10;94.80;;;;;;5020157;28;19914;-77
2022/01/13 09:45:04;;;;;;;;;;;7.10;94.80;;;;;;5018662;28;19941;-78
2022/01/13 09:47:30;;;;;;;;;;;7.20;94.70;;;;;;5022702;28;19914;-77
2022/01/13 09:49:57;;;;;;;;;;;7.20;94.30;;;;;;5019915;28;20069;-78
2022/01/13 09:52:23;;;;;;;;;;;7.20;94.10;;;;;;5018265;28;19928;-78
2022/01/13 09:54:49;;;;;;;;;;;7.20;94.10;;;;;;5016169;28;19914;-77
2022/01/13 09:57:14;;;;;;;;;;;7.30;94.20;;;;;;5018623;28;19936;-78
2022/01/13 09:59:40;;;;;;;;;;;7.30;94.10;;;;;;5009572;28;20420;-78
2022/01/13 10:02:06;;;;;;;;;;;7.40;93.90;;;;;;5014013;28;19910;-77
2022/01/13 10:04:47;;;;;;;;;;;7.50;94.00;;;;;;5015579;28;19924;-77
2022/01/13 10:07:17;;;;;;;;;;;7.60;94.30;;;;;;5013306;28;19922;-77
2022/01/13 10:10:14;;;;;;;;;;;7.80;94.10;;;;;;5010793;28;19909;-78
2022/01/13 10:12:43;;;;;;;;;;;8.00;94.20;;;;;;5005015;28;20308;-78
2022/01/13 10:17:57;;;;;;;;;;;8.20;92.90;;;;;;5016263;28;19948;-80
2022/01/13 10:20:23;;;;;;;;;;;8.40;92.90;;;;;;5018616;28;19913;-77
2022/01/13 10:22:49;;;;;;;;;;;8.70;93.10;;;;;;5017512;28;20442;-77
2022/01/13 10:25:25;;;;;;;;;;;9.20;93.20;;;;;;5017347;28;19918;-77
2022/01/13 10:27:51;;;;;;;;;;;9.80;93.10;;;;;;5018735;28;19968;-77
2022/01/13 10:30:17;;;;;;;;;;;10.50;92.80;;;;;;5018049;28;19909;-77
2022/01/13 10:32:45;;;;;;;;;;;11.20;91.90;;;;;;5017375;28;20391;-77
2022/01/13 10:35:12;;;;;;;;;;;11.80;90.40;;;;;;5018159;28;19910;-77
2022/01/13 10:37:39;;;;;;;;;;;12.10;88.80;;;;;;5013784;28;20016;-77
2022/01/13 10:40:07;;;;;;;;;;;12.00;86.70;;;;;;5018959;28;20008;-78
2022/01/13 10:43:06;;;;;;;;;;;12.00;86.20;;;;;;5018691;28;19916;-78
2022/01/13 10:45:22;;;;;;;;;;;12.00;86.70;;;;;;5018340;28;19913;-77
2022/01/13 10:47:50;;;;;;;;;;;12.40;86.80;;;;;;5026002;28;19921;-78
2022/01/13 10:50:16;;;;;;;;;;;12.80;87.90;;;;;;5018153;28;19917;-77
2022/01/13 10:52:42;;;;;;;;;;;13.40;84.30;;;;;;5017839;28;19914;-77
2022/01/13 10:55:11;;;;;;;;;;;13.70;84.50;;;;;;5017989;28;19949;-76
2022/01/13 10:57:38;;;;;;;;;;;14.10;82.40;;;;;;5017124;28;19920;-82
2022/01/13 11:00:04;;;;;;;;;;;14.30;80.20;;;;;;5018834;28;19909;-79
2022/01/13 11:02:30;;;;;;;;;;;14.30;76.90;;;;;;5017492;28;19909;-83
2022/01/13 11:05:01;;;;;;;;;;;14.00;77.60;;;;;;5022031;28;20415;-84
2022/01/13 11:07:27;;;;;;;;;;;13.70;78.60;;;;;;5016920;28;19945;-82
2022/01/13 11:10:01;;;;;;;;;;;13.50;78.70;;;;;;5018415;28;19977;-77
2022/01/13 11:12:38;;;;;;;;;;;13.50;77.60;;;;;;5010259;28;19909;-79
2022/01/13 11:15:07;;;;;;;;;;;13.60;78.30;;;;;;5024785;28;19963;-82
2022/01/13 11:17:34;;;;;;;;;;;13.80;80.20;;;;;;5016858;28;19917;-83
2022/01/13 11:20:00;;;;;;;;;;;14.10;80.90;;;;;;5016463;28;20443;-81
2022/01/13 11:22:26;;;;;;;;;;;14.40;81.00;;;;;;5018117;28;20031;-79
2022/01/13 11:24:51;;;;;;;;;;;14.80;79.90;;;;;;5016259;28;20012;-81
2022/01/13 11:27:18;;;;;;;;;;;15.00;78.30;;;;;;5017006;28;19913;-77
2022/01/13 11:29:47;;;;;;;;;;;15.20;77.50;;;;;;5017448;28;19976;-80
2022/01/13 11:32:17;;;;;;;;;;;15.40;77.10;;;;;;5022570;28;19913;-74
2022/01/13 11:34:43;;;;;;;;;;;15.60;78.50;;;;;;5017452;28;19937;-76
2022/01/13 11:37:08;;;;;;;;;;;15.90;77.50;;;;;;5017379;28;19918;-76
2022/01/13 11:39:35;;;;;;;;;;;16.20;76.00;;;;;;5017722;28;20012;-81
2022/01/13 11:42:05;;;;;;;;;;;16.40;75.60;;;;;;5017437;28;20015;-80
2022/01/13 11:44:30;;;;;;;;;;;16.60;75.40;;;;;;5016981;28;20407;-80
2022/01/13 11:46:56;;;;;;;;;;;16.80;75.10;;;;;;5021866;28;19971;-79
2022/01/13 11:49:37;;;;;;;;;;;17.00;74.70;;;;;;5018240;28;19948;-83
2022/01/13 11:52:13;;;;;;;;;;;17.20;73.80;;;;;;5016440;28;19956;-79
2022/01/13 11:54:39;;;;;;;;;;;17.30;72.40;;;;;;5014416;28;19913;-74
2022/01/13 11:57:09;;;;;;;;;;;17.40;71.70;;;;;;5017182;28;19921;-80
2022/01/13 11:59:34;;;;;;;;;;;17.50;71.90;;;;;;5017454;28;19913;-75
2022/01/13 12:02:19;;;;;;;;;;;17.60;70.80;;;;;;5017173;28;19913;-78
2022/01/13 12:05:01;;;;;;;;;;;17.70;69.40;;;;;;5017566;28;19917;-82
2022/01/13 12:07:42;;;;;;;;;;;17.80;70.70;;;;;;5011680;28;19965;-75
2022/01/13 12:10:08;;;;;;;;;;;17.90;69.10;;;;;;5016753;28;19918;-77
2022/01/13 12:12:35;;;;;;;;;;;18.00;69.00;;;;;;5016628;28;20472;-84
2022/01/13 12:15:17;;;;;;;;;;;18.00;67.90;;;;;;5015342;28;19913;-83
2022/01/13 12:17:51;;;;;;;;;;;18.00;66.80;;;;;;5016014;28;19913;-82
2022/01/13 12:20:22;;;;;;;;;;;18.00;68.70;;;;;;5006851;28;19913;-84
2022/01/13 12:22:58;;;;;;;;;;;18.00;67.50;;;;;;5015999;28;19909;-81
2022/01/13 12:25:31;;;;;;;;;;;18.00;66.60;;;;;;5016945;28;19914;-72
2022/01/13 12:27:57;;;;;;;;;;;18.00;67.90;;;;;;5019768;28;20040;-79
2022/01/13 12:30:27;;;;;;;;;;;18.10;64.90;;;;;;5017283;28;20384;-78
2022/01/13 12:32:57;;;;;;;;;;;18.00;67.10;;;;;;5021988;28;19918;-77
2022/01/13 12:35:39;;;;;;;;;;;18.10;66.90;;;;;;5014793;28;19913;-78
2022/01/13 12:38:05;;;;;;;;;;;18.00;65.30;;;;;;5016106;28;19927;-79
2022/01/13 12:40:39;;;;;;;;;;;17.80;64.50;;;;;;5011335;28;21300;-78
2022/01/13 12:43:21;;;;;;;;;;;17.70;65.90;;;;;;5005173;28;20024;-78
2022/01/13 12:45:47;;;;;;;;;;;17.60;65.80;;;;;;5004316;28;19913;-78
2022/01/13 12:48:13;;;;;;;;;;;17.60;66.80;;;;;;5017087;28;19936;-79
2022/01/13 12:50:40;;;;;;;;;;;17.60;66.10;;;;;;5015964;28;19913;-78
2022/01/13 12:53:10;;;;;;;;;;;17.50;65.80;;;;;;5014933;28;19909;-78
2022/01/13 12:55:37;;;;;;;;;;;17.50;66.00;;;;;;5015970;28;19940;-78
2022/01/13 12:58:03;;;;;;;;;;;17.50;66.80;;;;;;5017142;28;20261;-79
2022/01/13 13:00:28;;;;;;;;;;;17.60;67.40;;;;;;5016752;28;20013;-78
2022/01/13 13:02:55;;;;;;;;;;;17.60;64.90;;;;;;5015683;28;19913;-79
2022/01/13 13:05:31;;;;;;;;;;;17.60;65.40;;;;;;5016575;28;19909;-78
2022/01/13 13:07:57;;;;;;;;;;;17.50;66.00;;;;;;5006893;28;19909;-78
2022/01/13 13:10:23;;;;;;;;;;;17.50;65.60;;;;;;5014851;28;19959;-78
2022/01/13 13:12:53;;;;;;;;;;;17.40;65.70;;;;;;5015814;28;20402;-79
2022/01/13 13:17:46;;;;;;;;;;;17.40;64.90;;;;;;5017151;28;20335;-79
2022/01/13 13:20:30;;;;;;;;;;;17.40;65.70;;;;;;5015395;28;19913;-79
2022/01/13 13:22:58;;;;;;;;;;;17.30;64.20;;;;;;5016299;28;20289;-79
2022/01/13 13:25:28;;;;;;;;;;;17.20;63.00;;;;;;5015157;28;19921;-79
2022/01/13 13:27:53;;;;;;;;;;;17.10;65.50;;;;;;5016900;28;19910;-80
2022/01/13 13:30:20;;;;;;;;;;;17.00;64.70;;;;;;5009798;28;20369;-80
2022/01/13 13:32:49;;;;;;;;;;;16.80;63.60;;;;;;5024547;28;20308;-79
2022/01/13 13:35:15;;;;;;;;;;;16.80;65.60;;;;;;5019915;28;19910;-80
2022/01/13 13:37:44;;;;;;;;;;;16.60;64.70;;;;;;5020377;28;20024;-80
2022/01/13 13:40:30;;;;;;;;;;;16.50;65.90;;;;;;5020104;28;20297;-79
2022/01/13 13:43:06;;;;;;;;;;;16.30;65.90;;;;;;5016091;28;19913;-79
2022/01/13 13:45:32;;;;;;;;;;;16.10;64.50;;;;;;5018223;28;19918;-80
2022/01/13 13:47:58;;;;;;;;;;;16.10;64.60;;;;;;5027156;28;20407;-79
2022/01/13 13:50:24;;;;;;;;;;;16.00;65.40;;;;;;5018515;28;19921;-79
2022/01/13 13:53:08;;;;;;;;;;;15.90;65.40;;;;;;5016992;28;20510;-78
2022/01/13 13:55:35;;;;;;;;;;;15.80;65.50;;;;;;5024812;28;19910;-79
2022/01/13 13:58:01;;;;;;;;;;;15.80;66.40;;;;;;5025892;28;19976;-78
2022/01/13 14:00:27;;;;;;;;;;;15.70;66.10;;;;;;5013993;28;19918;-79
2022/01/13 14:02:54;;;;;;;;;;;15.70;66.40;;;;;;5015313;28;19917;-81
2022/01/13 14:05:24;;;;;;;;;;;15.60;65.60;;;;;;5010544;28;19941;-79
2022/01/13 14:07:49;;;;;;;;;;;15.50;65.10;;;;;;5014536;28;19972;-79
2022/01/13 14:10:25;;;;;;;;;;;15.30;65.50;;;;;;5029796;28;19914;-78
2022/01/13 14:12:59;;;;;;;;;;;15.10;66.70;;;;;;5019415;28;19909;-79
2022/01/13 14:15:25;;;;;;;;;;;14.90;68.10;;;;;;5017732;28;19914;-79
2022/01/13 14:17:52;;;;;;;;;;;14.70;68.50;;;;;;5019210;28;19963;-80
2022/01/13 14:20:20;;;;;;;;;;;14.60;69.80;;;;;;5019182;28;20320;-80
2022/01/13 14:22:54;;;;;;;;;;;14.40;71.20;;;;;;5019546;28;20357;-79
2022/01/13 14:25:19;;;;;;;;;;;14.10;69.80;;;;;;5019311;28;19945;-79
2022/01/13 14:27:48;;;;;;;;;;;13.80;69.00;;;;;;5019568;28;19914;-80
2022/01/13 14:30:23;;;;;;;;;;;13.60;70.20;;;;;;5018952;28;19916;-80
2022/01/13 14:32:49;;;;;;;;;;;13.40;70.40;;;;;;5029131;28;19910;-80
2022/01/13 14:35:15;;;;;;;;;;;13.10;70.20;;;;;;5020367;28;19916;-79
2022/01/13 14:37:52;;;;;;;;;;;12.90;70.40;;;;;;5019180;28;19917;-80
2022/01/13 14:40:18;;;;;;;;;;;12.70;71.80;;;;;;5018705;28;20273;-79
2022/01/13 14:42:45;;;;;;;;;;;12.60;71.40;;;;;;5019558;28;20068;-79
2022/01/13 14:45:18;;;;;;;;;;;12.40;71.70;;;;;;5019181;28;19909;-80
2022/01/13 14:47:44;;;;;;;;;;;12.30;73.20;;;;;;5032143;28;19909;-80
2022/01/13 14:50:09;;;;;;;;;;;12.20;73.60;;;;;;5018716;28;19917;-80